createdAt,value
2023-05-11T00:00:43.800Z,50.875351
2023-05-11T00:01:43.787Z,50.875351
2023-05-11T00:02:43.879Z,50.875351
2023-05-11T00:03:43.812Z,50.875351
2023-05-11T00:04:43.898Z,50.875351
2023-05-11T00:05:43.742Z,50.875351
2023-05-11T00:06:43.739Z,50.875351
2023-05-11T00:07:43.743Z,50.875351
2023-05-11T00:08:43.749Z,50.875351
2023-05-11T00:09:43.734Z,50.875351
2023-05-11T00:10:43.695Z,50.875351
2023-05-11T00:11:43.688Z,50.875351
2023-05-11T00:12:43.679Z,50.875351
2023-05-11T00:13:43.670Z,50.875351
2023-05-11T00:14:43.663Z,50.875351
2023-05-11T00:15:43.646Z,50.875351
2023-05-11T00:16:43.635Z,50.875351
2023-05-11T00:17:43.625Z,50.875351
2023-05-11T00:18:43.679Z,50.875351
2023-05-11T00:19:43.615Z,50.875351
2023-05-11T00:20:43.594Z,50.875351
2023-05-11T00:21:44.597Z,50.875351
2023-05-11T00:22:44.959Z,50.875351
2023-05-11T00:23:44.581Z,50.875351
2023-05-11T00:24:43.557Z,50.875351
2023-05-11T00:25:43.545Z,50.875351
2023-05-11T00:26:43.558Z,50.875351
2023-05-11T00:27:43.547Z,50.875351
2023-05-11T00:28:43.529Z,50.875351
2023-05-11T00:29:43.495Z,50.875351
2023-05-11T00:30:43.509Z,50.875351
2023-05-11T00:31:43.494Z,50.875351
2023-05-11T00:32:43.515Z,50.875351
2023-05-11T00:33:43.470Z,50.875351
2023-05-11T00:34:43.447Z,50.875351
2023-05-11T00:35:43.446Z,50.875351
2023-05-11T00:36:43.425Z,50.875351
2023-05-11T00:37:43.441Z,50.875351
2023-05-11T00:38:43.433Z,50.875351
2023-05-11T00:39:43.429Z,50.875351
2023-05-11T00:40:43.409Z,50.875351
2023-05-11T00:41:43.394Z,50.875351
2023-05-11T00:42:43.387Z,50.875351
2023-05-11T00:43:43.364Z,50.875351
2023-05-11T00:44:43.383Z,50.875355
2023-05-11T00:45:43.338Z,50.875435
2023-05-11T00:46:43.402Z,50.875587
2023-05-11T00:47:43.339Z,50.875473
2023-05-11T00:48:43.327Z,50.875374
2023-05-11T00:49:43.302Z,50.875191
2023-05-11T00:50:43.303Z,50.875256
2023-05-11T00:51:43.316Z,50.875408
2023-05-11T00:52:43.270Z,50.875473
2023-05-11T00:53:43.278Z,50.875301
2023-05-11T00:54:43.258Z,50.875340
2023-05-11T00:55:43.275Z,50.875332
2023-05-11T00:56:43.244Z,50.875328
2023-05-11T00:57:43.265Z,50.875298
2023-05-11T00:58:43.221Z,50.875229
2023-05-11T00:59:43.233Z,50.875336
2023-05-11T01:00:43.237Z,50.875313
2023-05-11T01:01:43.239Z,50.875355
2023-05-11T01:02:43.265Z,50.875317
2023-05-11T01:03:43.183Z,50.875320
2023-05-11T01:04:43.179Z,50.875340
2023-05-11T01:05:43.173Z,50.875362
2023-05-11T01:06:43.154Z,50.875389
2023-05-11T01:07:43.140Z,50.875282
2023-05-11T01:08:43.119Z,50.875404
2023-05-11T01:09:43.138Z,50.875324
2023-05-11T01:10:43.130Z,50.875431
2023-05-11T01:11:43.160Z,50.875328
2023-05-11T01:12:43.088Z,50.875401
2023-05-11T01:13:43.078Z,50.875408
2023-05-11T01:14:43.081Z,50.875301
2023-05-11T01:15:43.074Z,50.875408
2023-05-11T01:16:43.101Z,50.875252
2023-05-11T01:17:43.062Z,50.875263
2023-05-11T01:18:43.047Z,50.875332
2023-05-11T01:19:43.051Z,50.875317
2023-05-11T01:20:43.022Z,50.875443
2023-05-11T01:21:43.002Z,50.875412
2023-05-11T01:22:43.029Z,50.875412
2023-05-11T01:23:43.000Z,50.875397
2023-05-11T01:24:42.994Z,50.875153
2023-05-11T01:25:43.002Z,50.875198
2023-05-11T01:26:42.993Z,50.875221
2023-05-11T01:27:42.974Z,50.875069
2023-05-11T01:28:42.982Z,50.875153
2023-05-11T01:29:42.950Z,50.875278
2023-05-11T01:30:42.925Z,50.875324
2023-05-11T01:31:42.962Z,50.875408
2023-05-11T01:32:42.945Z,50.875282
2023-05-11T01:33:42.911Z,50.875343
2023-05-11T01:34:42.890Z,50.875397
2023-05-11T01:35:42.887Z,50.875416
2023-05-11T01:36:42.916Z,50.875458
2023-05-11T01:37:42.860Z,50.875519
2023-05-11T01:38:43.856Z,50.875420
2023-05-11T01:39:42.833Z,50.875484
2023-05-11T01:40:42.840Z,50.875587
2023-05-11T01:41:42.839Z,50.875458
2023-05-11T01:42:42.822Z,50.875309
2023-05-11T01:43:42.853Z,50.875408
2023-05-11T01:44:42.799Z,50.875435
2023-05-11T01:45:42.797Z,50.875465
2023-05-11T01:46:42.786Z,50.875641
2023-05-11T01:47:42.856Z,50.875500
2023-05-11T01:48:42.743Z,50.875473
2023-05-11T01:49:42.749Z,50.875389
2023-05-11T01:50:42.728Z,50.875523
2023-05-11T01:51:42.718Z,50.875317
2023-05-11T01:52:42.713Z,50.875385
2023-05-11T01:53:42.713Z,50.875443
2023-05-11T01:54:42.696Z,50.875362
2023-05-11T01:55:42.679Z,50.875446
2023-05-11T01:56:42.698Z,50.875397
2023-05-11T01:57:42.675Z,50.875401
2023-05-11T01:58:42.663Z,50.875427
2023-05-11T01:59:42.671Z,50.875237
2023-05-11T02:00:42.634Z,50.875355
2023-05-11T02:01:42.696Z,50.875263
2023-05-11T02:02:42.694Z,50.875263
2023-05-11T02:03:42.690Z,50.875263
2023-05-11T02:04:42.592Z,50.875263
2023-05-11T02:05:42.585Z,50.875263
2023-05-11T02:06:42.589Z,50.874565
2023-05-11T02:07:42.571Z,50.873085
2023-05-11T02:08:42.555Z,50.872395
2023-05-11T02:09:42.545Z,50.872643
2023-05-11T02:10:42.564Z,50.872612
2023-05-11T02:11:42.557Z,50.872311
2023-05-11T02:12:42.529Z,50.872311
2023-05-11T02:13:42.509Z,50.872311
2023-05-11T02:14:42.533Z,50.872311
2023-05-11T02:15:42.573Z,50.872311
2023-05-11T02:16:42.481Z,50.872311
2023-05-11T02:17:42.509Z,50.872311
2023-05-11T02:18:42.509Z,50.872311
2023-05-11T02:19:42.451Z,50.872311
2023-05-11T02:20:42.475Z,50.872311
2023-05-11T02:21:42.428Z,50.872311
2023-05-11T02:22:43.443Z,50.872311
2023-05-11T02:23:42.410Z,50.872311
2023-05-11T02:24:42.432Z,50.872311
2023-05-11T02:25:42.412Z,50.872311
2023-05-11T02:26:42.398Z,50.872311
2023-05-11T02:27:42.373Z,50.872311
2023-05-11T02:28:42.373Z,50.872311
2023-05-11T02:29:42.415Z,50.872311
2023-05-11T02:30:42.357Z,50.872311
2023-05-11T02:31:42.468Z,50.872311
2023-05-11T02:32:42.357Z,50.872311
2023-05-11T02:33:42.318Z,50.872311
2023-05-11T02:34:42.323Z,50.872311
2023-05-11T02:35:42.323Z,50.872311
2023-05-11T02:36:42.311Z,50.872311
2023-05-11T02:37:42.277Z,50.872311
2023-05-11T02:38:42.273Z,50.872311
2023-05-11T02:39:42.283Z,50.872311
2023-05-11T02:40:42.255Z,50.872311
2023-05-11T02:41:43.268Z,50.872311
2023-05-11T02:42:42.236Z,50.872311
2023-05-11T02:43:42.239Z,50.872311
2023-05-11T02:44:42.229Z,50.872311
2023-05-11T02:45:42.208Z,50.872311
2023-05-11T02:46:42.240Z,50.872311
2023-05-11T02:47:43.265Z,50.872311
2023-05-11T02:48:42.190Z,50.872311
2023-05-11T02:49:42.179Z,50.872311
2023-05-11T02:50:42.154Z,50.872311
2023-05-11T02:51:42.137Z,50.872311
2023-05-11T02:52:42.122Z,50.872311
2023-05-11T02:53:42.146Z,50.872311
2023-05-11T02:54:42.109Z,50.872311
2023-05-11T02:55:42.117Z,50.872311
2023-05-11T02:56:42.126Z,50.872311
2023-05-11T02:57:42.099Z,50.872311
2023-05-11T02:58:42.077Z,50.872311
2023-05-11T02:59:42.150Z,50.872311
2023-05-11T03:00:42.130Z,50.872311
2023-05-11T03:01:42.186Z,50.872311
2023-05-11T03:02:42.165Z,50.872311
2023-05-11T03:03:42.306Z,50.872311
2023-05-11T03:04:42.044Z,50.872311
2023-05-11T03:05:42.059Z,50.872311
2023-05-11T03:06:42.070Z,50.872311
2023-05-11T03:07:42.038Z,50.872311
2023-05-11T03:08:41.997Z,50.872311
2023-05-11T03:09:41.969Z,50.872311
2023-05-11T03:10:42.034Z,50.872311
2023-05-11T03:11:41.973Z,50.872311
2023-05-11T03:12:41.955Z,50.872311
2023-05-11T03:13:41.923Z,50.872311
2023-05-11T03:14:41.923Z,50.872311
2023-05-11T03:15:41.916Z,50.872311
2023-05-11T03:16:41.963Z,50.872311
2023-05-11T03:17:41.941Z,50.872311
2023-05-11T03:18:41.950Z,50.872311
2023-05-11T03:19:41.914Z,50.872311
2023-05-11T03:20:41.874Z,50.872311
2023-05-11T03:21:41.881Z,50.872311
2023-05-11T03:22:41.848Z,50.872311
2023-05-11T03:23:41.830Z,50.872311
2023-05-11T03:24:41.820Z,50.872311
2023-05-11T03:25:41.808Z,50.872311
2023-05-11T03:26:41.821Z,50.872311
2023-05-11T03:27:41.812Z,50.872311
2023-05-11T03:28:41.798Z,50.872311
2023-05-11T03:29:41.771Z,50.872311
2023-05-11T03:30:41.786Z,50.872311
2023-05-11T03:31:41.843Z,50.872311
2023-05-11T03:32:41.768Z,50.872311
2023-05-11T03:33:41.749Z,50.872311
2023-05-11T03:34:41.734Z,50.872311
2023-05-11T03:35:41.740Z,50.872311
2023-05-11T03:36:41.705Z,50.872311
2023-05-11T03:37:41.712Z,50.872311
2023-05-11T03:38:41.694Z,50.872311
2023-05-11T03:39:41.691Z,50.872311
2023-05-11T03:40:41.713Z,50.875664
2023-05-11T03:41:41.684Z,50.875347
2023-05-11T03:42:41.662Z,50.875305
2023-05-11T03:43:41.658Z,50.875320
2023-05-11T03:44:41.644Z,50.875347
2023-05-11T03:45:41.699Z,50.875294
2023-05-11T03:46:41.610Z,50.875355
2023-05-11T03:47:41.638Z,50.875256
2023-05-11T03:48:41.586Z,50.875237
2023-05-11T03:49:41.611Z,50.875317
2023-05-11T03:50:41.572Z,50.875221
2023-05-11T03:51:41.557Z,50.875481
2023-05-11T03:52:41.544Z,50.875595
2023-05-11T03:53:41.551Z,50.875835
2023-05-11T03:54:41.547Z,50.875652
2023-05-11T03:55:41.518Z,50.875454
2023-05-11T03:56:41.533Z,50.875420
2023-05-11T03:57:41.525Z,50.875751
2023-05-11T03:58:41.495Z,50.875546
2023-05-11T03:59:41.503Z,50.874805
2023-05-11T04:00:41.490Z,50.877262
2023-05-11T04:01:41.485Z,50.879765
2023-05-11T04:02:41.509Z,50.879765
2023-05-11T04:03:41.515Z,50.879765
2023-05-11T04:04:41.502Z,50.879765
2023-05-11T04:05:42.466Z,50.879765
2023-05-11T04:06:41.456Z,50.879765
2023-05-11T04:07:41.409Z,50.879765
2023-05-11T04:08:41.406Z,50.879765
2023-05-11T04:09:41.388Z,50.879765
2023-05-11T04:10:41.373Z,50.879765
2023-05-11T04:11:41.390Z,50.879765
2023-05-11T04:12:41.348Z,50.879765
2023-05-11T04:13:41.355Z,50.879765
2023-05-11T04:14:41.351Z,50.879765
2023-05-11T04:15:41.367Z,50.879765
2023-05-11T04:16:41.474Z,50.879765
2023-05-11T04:17:41.398Z,50.879765
2023-05-11T04:18:41.384Z,50.879765
2023-05-11T04:19:41.279Z,50.879765
2023-05-11T04:20:41.301Z,50.879765
2023-05-11T04:21:41.272Z,50.879765
2023-05-11T04:22:41.261Z,50.879765
2023-05-11T04:23:41.240Z,50.879765
2023-05-11T04:24:41.232Z,50.879765
2023-05-11T04:25:41.232Z,50.879765
2023-05-11T04:26:41.225Z,50.879765
2023-05-11T04:27:41.233Z,50.879765
2023-05-11T04:28:41.186Z,50.879765
2023-05-11T04:29:41.184Z,50.879765
2023-05-11T04:30:41.184Z,50.879765
2023-05-11T04:31:41.215Z,50.879765
2023-05-11T04:32:41.189Z,50.879765
2023-05-11T04:33:41.165Z,50.879765
2023-05-11T04:34:41.149Z,50.879765
2023-05-11T04:35:41.140Z,50.879765
2023-05-11T04:36:41.114Z,50.879765
2023-05-11T04:37:41.092Z,50.879765
2023-05-11T04:38:41.087Z,50.879765
2023-05-11T04:39:41.077Z,50.879765
2023-05-11T04:40:41.064Z,50.879765
2023-05-11T04:41:41.080Z,50.879765
2023-05-11T04:42:41.277Z,50.879765
2023-05-11T04:43:41.053Z,50.879765
2023-05-11T04:44:41.048Z,50.879765
2023-05-11T04:45:41.014Z,50.879765
2023-05-11T04:46:41.053Z,50.879765
2023-05-11T04:47:41.001Z,50.879765
2023-05-11T04:48:41.004Z,50.879765
2023-05-11T04:49:40.976Z,50.879765
2023-05-11T04:50:40.969Z,50.879765
2023-05-11T04:51:40.961Z,50.879765
2023-05-11T04:52:40.942Z,50.879765
2023-05-11T04:53:42.342Z,50.879765
2023-05-11T04:54:40.927Z,50.879765
2023-05-11T04:55:40.913Z,50.879765
2023-05-11T04:56:40.947Z,50.879765
2023-05-11T04:57:40.886Z,50.879765
2023-05-11T04:58:41.881Z,50.879765
2023-05-11T04:59:40.882Z,50.879765
2023-05-11T05:00:40.968Z,50.879765
2023-05-11T05:01:40.902Z,50.879765
2023-05-11T05:02:40.889Z,50.879765
2023-05-11T05:03:40.917Z,50.879765
2023-05-11T05:04:40.840Z,50.879765
2023-05-11T05:05:40.873Z,50.879765
2023-05-11T05:06:40.811Z,50.879765
2023-05-11T05:07:40.824Z,50.879765
2023-05-11T05:08:40.791Z,50.879765
2023-05-11T05:09:42.430Z,50.879765
2023-05-11T05:10:40.802Z,50.879765
2023-05-11T05:11:40.785Z,50.879765
2023-05-11T05:12:40.756Z,50.879765
2023-05-11T05:13:40.765Z,50.879765
2023-05-11T05:14:40.762Z,50.879765
2023-05-11T05:15:40.753Z,50.879765
2023-05-11T05:16:40.768Z,50.879765
2023-05-11T05:17:40.795Z,50.879765
2023-05-11T05:18:40.799Z,50.879765
2023-05-11T05:19:40.715Z,50.879765
2023-05-11T05:20:40.693Z,50.879765
2023-05-11T05:21:40.710Z,50.879765
2023-05-11T05:22:40.675Z,50.879765
2023-05-11T05:23:40.667Z,50.879765
2023-05-11T05:24:40.666Z,50.879765
2023-05-11T05:25:40.651Z,50.879765
2023-05-11T05:26:40.628Z,50.879765
2023-05-11T05:27:40.614Z,50.879765
2023-05-11T05:28:40.837Z,50.879765
2023-05-11T05:29:40.609Z,50.879765
2023-05-11T05:30:40.646Z,50.879765
2023-05-11T05:31:40.599Z,50.879765
2023-05-11T05:32:40.610Z,50.879765
2023-05-11T05:33:40.577Z,50.879765
2023-05-11T05:34:40.558Z,50.879765
2023-05-11T05:35:40.541Z,50.879765
2023-05-11T05:36:40.553Z,50.879765
2023-05-11T05:37:40.537Z,50.879765
2023-05-11T05:38:40.536Z,50.879765
2023-05-11T05:39:40.505Z,50.879765
2023-05-11T05:40:40.499Z,50.879765
2023-05-11T05:41:40.496Z,50.879765
2023-05-11T05:42:40.495Z,50.879765
2023-05-11T05:43:40.486Z,50.879765
2023-05-11T05:44:40.472Z,50.879765
2023-05-11T05:45:40.452Z,50.879765
2023-05-11T05:46:40.552Z,50.879765
2023-05-11T05:47:40.450Z,50.879765
2023-05-11T05:48:40.411Z,50.879765
2023-05-11T05:49:40.407Z,50.879765
2023-05-11T05:50:40.394Z,50.879765
2023-05-11T05:51:40.395Z,50.879765
2023-05-11T05:52:40.391Z,50.879765
2023-05-11T05:53:40.352Z,50.879765
2023-05-11T05:54:40.359Z,50.879765
2023-05-11T05:55:40.403Z,50.879765
2023-05-11T05:56:40.326Z,50.879765
2023-05-11T05:57:40.353Z,50.879765
2023-05-11T05:58:40.319Z,50.879765
2023-05-11T05:59:52.676Z,50.879765
2023-05-11T06:00:40.330Z,50.879765
2023-05-11T06:01:40.327Z,50.879765
2023-05-11T06:02:40.399Z,50.879765
2023-05-11T06:03:40.496Z,50.879765
2023-05-11T06:04:40.341Z,50.879765
2023-05-11T06:05:40.279Z,50.879765
2023-05-11T06:06:40.292Z,50.879765
2023-05-11T06:07:40.267Z,50.879765
2023-05-11T06:08:40.266Z,50.879765
2023-05-11T06:09:40.242Z,50.879765
2023-05-11T06:10:40.236Z,50.879765
2023-05-11T06:11:40.243Z,50.879765
2023-05-11T06:12:40.215Z,50.879765
2023-05-11T06:13:40.204Z,50.879765
2023-05-11T06:14:40.182Z,50.879765
2023-05-11T06:15:43.031Z,50.879765
2023-05-11T06:16:41.258Z,50.879765
2023-05-11T06:17:40.164Z,50.879765
2023-05-11T06:18:40.154Z,50.879765
2023-05-11T06:19:40.125Z,50.879765
2023-05-11T06:20:40.122Z,50.879765
2023-05-11T06:21:40.115Z,50.879765
2023-05-11T06:22:40.092Z,50.879765
2023-05-11T06:23:40.069Z,50.879765
2023-05-11T06:24:40.071Z,50.875675
2023-05-11T06:25:40.069Z,50.875740
2023-05-11T06:26:40.033Z,50.875778
2023-05-11T06:27:41.036Z,50.875557
2023-05-11T06:28:40.028Z,50.875557
2023-05-11T06:29:40.028Z,50.875557
2023-05-11T06:30:40.010Z,50.875557
2023-05-11T06:31:40.015Z,50.875557
2023-05-11T06:32:40.010Z,50.875557
2023-05-11T06:33:39.980Z,50.875557
2023-05-11T06:34:39.982Z,50.875557
2023-05-11T06:35:39.954Z,50.875557
2023-05-11T06:36:39.965Z,50.875557
2023-05-11T06:37:39.951Z,50.875557
2023-05-11T06:38:39.942Z,50.875557
2023-05-11T06:39:39.939Z,50.875557
2023-05-11T06:40:39.923Z,50.875557
2023-05-11T06:41:39.899Z,50.875557
2023-05-11T06:42:40.889Z,50.875557
2023-05-11T06:43:39.917Z,50.875557
2023-05-11T06:44:39.954Z,50.875557
2023-05-11T06:45:39.894Z,50.875557
2023-05-11T06:46:39.855Z,50.875557
2023-05-11T06:47:39.927Z,50.875557
2023-05-11T06:48:39.849Z,50.875557
2023-05-11T06:49:39.830Z,50.875557
2023-05-11T06:50:39.844Z,50.875557
2023-05-11T06:51:39.807Z,50.875557
2023-05-11T06:52:39.800Z,50.875557
2023-05-11T06:53:39.792Z,50.875557
2023-05-11T06:54:39.768Z,50.875557
2023-05-11T06:55:39.768Z,50.875557
2023-05-11T06:56:39.761Z,50.875557
2023-05-11T06:57:40.056Z,50.875557
2023-05-11T06:58:39.750Z,50.875557
2023-05-11T06:59:39.737Z,50.875557
2023-05-11T07:00:39.704Z,50.875557
2023-05-11T07:01:39.777Z,50.875313
2023-05-11T07:02:39.770Z,50.875370
2023-05-11T07:03:39.697Z,50.875298
2023-05-11T07:04:39.749Z,50.875267
2023-05-11T07:05:39.666Z,50.875202
2023-05-11T07:06:39.671Z,50.875256
2023-05-11T07:07:39.683Z,50.875221
2023-05-11T07:08:39.650Z,50.875065
2023-05-11T07:09:41.907Z,50.874954
2023-05-11T07:10:39.620Z,50.874954
2023-05-11T07:11:39.625Z,50.874954
2023-05-11T07:12:39.654Z,50.874954
2023-05-11T07:13:39.601Z,50.874954
2023-05-11T07:14:39.591Z,50.874954
2023-05-11T07:15:39.582Z,50.874954
2023-05-11T07:16:39.590Z,50.874954
2023-05-11T07:17:39.681Z,50.874954
2023-05-11T07:18:39.611Z,50.874954
2023-05-11T07:19:39.539Z,50.874954
2023-05-11T18:41:35.198Z,50.879341
2023-05-11T18:42:35.342Z,50.879341
2023-05-11T18:43:35.113Z,50.879341
2023-05-11T18:44:35.096Z,50.879341
2023-05-11T18:45:35.270Z,50.879341
2023-05-11T18:46:35.092Z,50.879341
2023-05-11T18:47:35.061Z,50.879341
2023-05-11T18:48:35.043Z,50.879341
2023-05-11T18:49:35.058Z,50.879341
2023-05-11T18:50:35.040Z,50.879341
2023-05-11T18:51:34.991Z,50.879341
2023-05-11T18:52:34.977Z,50.879341
2023-05-11T18:53:34.961Z,50.879341
2023-05-11T18:54:35.003Z,50.879341
2023-05-11T18:55:44.689Z,50.879341
2023-05-11T18:56:36.935Z,50.879341
2023-05-11T18:57:34.941Z,50.879341
2023-05-11T18:58:34.933Z,50.879341
2023-05-11T18:59:34.913Z,50.879341
2023-05-11T19:00:34.887Z,50.879341
2023-05-11T19:01:47.009Z,50.879341
2023-05-11T19:02:36.931Z,50.879341
2023-05-11T19:03:34.854Z,50.879341
2023-05-11T19:04:34.849Z,50.879341
2023-05-11T19:05:34.811Z,50.879341
2023-05-11T19:06:35.052Z,50.879341
2023-05-11T19:07:34.815Z,50.879341
2023-05-11T19:08:34.810Z,50.879341
2023-05-11T19:09:34.824Z,50.876621
2023-05-11T19:10:34.817Z,50.876694
2023-05-11T19:11:34.799Z,50.877090
2023-05-11T19:12:34.796Z,50.877068
2023-05-11T19:13:34.785Z,50.877068
2023-05-11T19:14:34.744Z,50.876808
2023-05-11T19:15:35.733Z,50.876282
2023-05-11T19:16:34.774Z,50.875416
2023-05-11T19:17:34.723Z,50.875324
2023-05-11T19:18:34.782Z,50.875317
2023-05-11T19:19:34.714Z,50.875286
2023-05-11T19:20:34.719Z,50.875229
2023-05-11T19:21:34.690Z,50.875069
2023-05-11T19:22:34.671Z,50.875134
2023-05-11T19:23:34.723Z,50.875320
2023-05-11T19:24:34.705Z,50.876411
2023-05-11T19:25:34.605Z,50.882847
2023-05-11T19:26:34.600Z,50.891434
2023-05-11T19:27:34.607Z,50.905342
2023-05-11T19:28:34.582Z,50.920883
2023-05-11T19:29:34.579Z,50.939785
2023-05-11T19:30:34.562Z,50.939785
2023-05-11T19:31:34.629Z,50.939785
2023-05-11T19:32:34.575Z,50.939785
2023-05-11T19:33:34.533Z,50.939785
2023-05-11T19:34:34.515Z,50.939785
2023-05-11T19:35:34.507Z,50.939785
2023-05-11T19:36:34.512Z,50.939785
2023-05-11T19:37:34.494Z,50.939785
2023-05-11T19:38:34.469Z,50.939785
2023-05-11T19:39:35.483Z,50.939785
2023-05-11T19:40:44.501Z,50.939785
2023-05-11T19:41:36.456Z,50.939785
2023-05-11T19:42:39.177Z,50.939785
2023-05-11T19:43:36.434Z,50.939785
2023-05-11T19:44:34.441Z,50.939785
2023-05-11T19:45:34.417Z,50.939785
2023-05-11T19:46:34.697Z,50.939785
2023-05-11T19:47:34.388Z,50.939785
2023-05-11T19:48:34.373Z,50.939785
2023-05-11T19:49:34.354Z,50.939785
2023-05-11T19:50:34.361Z,50.939785
2023-05-11T19:51:34.396Z,50.939785
2023-05-11T19:52:34.339Z,50.939785
2023-05-11T19:53:34.328Z,50.939785
2023-05-11T19:54:34.300Z,50.939785
2023-05-11T19:55:34.308Z,50.939785
2023-05-11T19:56:34.327Z,50.939785
2023-05-11T19:57:34.372Z,50.875259
2023-05-11T19:58:34.265Z,50.875298
2023-05-11T19:59:34.265Z,50.875278
2023-05-11T20:00:34.254Z,50.875427
2023-05-11T20:01:34.256Z,50.875397
2023-05-11T20:02:34.378Z,50.875343
2023-05-11T20:03:34.339Z,50.875141
2023-05-11T20:04:34.281Z,50.875378
2023-05-11T20:05:34.245Z,50.875446
2023-05-11T20:06:34.220Z,50.875324
2023-05-11T20:07:34.205Z,50.875458
2023-05-11T20:08:34.203Z,50.875542
2023-05-11T20:09:34.169Z,50.875427
2023-05-11T20:10:34.175Z,50.875385
2023-05-11T20:11:34.151Z,50.875195
2023-05-11T20:12:34.158Z,50.875137
2023-05-11T20:13:34.126Z,50.875137
2023-05-11T20:14:34.131Z,50.875137
2023-05-11T20:15:34.142Z,50.875137
2023-05-11T20:16:34.111Z,50.875137
2023-05-11T20:17:34.101Z,50.875137
2023-05-11T20:18:34.104Z,50.875137
2023-05-11T20:19:34.076Z,50.875137
2023-05-11T20:20:34.063Z,50.875137
2023-05-11T20:21:34.037Z,50.875137
2023-05-11T20:22:34.032Z,50.875137
2023-05-11T20:23:35.291Z,50.875137
2023-05-11T20:24:34.027Z,50.875137
2023-05-11T20:25:34.007Z,50.875137
2023-05-11T20:26:34.013Z,50.875137
2023-05-11T20:27:34.586Z,50.875137
2023-05-11T20:28:33.993Z,50.875137
2023-05-11T20:29:33.993Z,50.875137
2023-05-11T20:30:33.946Z,50.875137
2023-05-11T20:31:34.020Z,50.875137
2023-05-11T20:32:33.957Z,50.875137
2023-05-11T20:34:34.994Z,50.875137
2023-05-11T20:35:33.948Z,50.875137
2023-05-11T20:36:33.896Z,50.875137
2023-05-11T20:37:33.881Z,50.875137
2023-05-11T20:38:33.866Z,50.875137
2023-05-11T20:39:33.900Z,50.875137
2023-05-11T20:40:33.840Z,50.875137
2023-05-11T20:41:33.839Z,50.875137
2023-05-11T20:42:33.863Z,50.875137
2023-05-11T20:43:33.838Z,50.875137
2023-05-11T20:44:33.823Z,50.875137
2023-05-11T20:45:33.834Z,50.875137
2023-05-11T20:46:34.776Z,50.875137
2023-05-11T20:47:33.832Z,50.875137
2023-05-11T20:48:40.555Z,50.875137
2023-05-11T20:49:39.382Z,50.875137
2023-05-11T20:50:34.787Z,50.875137
2023-05-11T20:51:33.776Z,50.875137
2023-05-11T20:52:33.794Z,50.875137
2023-05-11T20:53:33.734Z,50.875137
2023-05-11T20:54:33.811Z,50.875137
2023-05-11T20:55:33.731Z,50.875137
2023-05-11T20:56:33.749Z,50.875137
2023-05-11T20:57:33.704Z,50.875137
2023-05-11T20:58:33.718Z,50.875137
2023-05-11T21:00:34.693Z,50.875137
2023-05-11T21:01:33.707Z,50.875137
2023-05-11T21:02:33.764Z,50.875137
2023-05-11T21:03:33.718Z,50.875137
2023-05-11T21:04:33.691Z,50.875137
2023-05-11T21:05:33.619Z,50.875137
2023-05-11T21:06:33.591Z,50.875137
2023-05-11T21:07:33.669Z,50.875137
2023-05-11T21:08:33.619Z,50.875137
2023-05-11T21:09:33.605Z,50.875137
2023-05-11T21:10:33.601Z,50.875137
2023-05-11T21:11:33.550Z,50.875137
2023-05-11T21:12:33.573Z,50.875137
2023-05-11T21:13:33.575Z,50.875137
2023-05-11T21:14:33.520Z,50.875137
2023-05-11T21:15:33.542Z,50.875137
2023-05-11T21:16:33.579Z,50.875137
2023-05-11T21:17:33.648Z,50.875137
2023-05-11T21:18:33.553Z,50.875137
2023-05-11T21:19:34.467Z,50.875137
2023-05-11T21:20:33.496Z,50.875137
2023-05-11T21:21:33.505Z,50.875137
2023-05-11T21:22:33.445Z,50.875137
2023-05-11T21:23:33.416Z,50.875137
2023-05-11T21:24:33.444Z,50.875137
2023-05-11T21:25:33.424Z,50.875137
2023-05-11T21:26:34.156Z,50.875137
2023-05-11T21:27:33.400Z,50.875137
2023-05-11T21:28:33.397Z,50.875137
2023-05-11T21:29:33.372Z,50.875137
2023-05-11T21:30:33.374Z,50.875137
2023-05-11T21:31:33.542Z,50.875137
2023-05-11T21:32:33.376Z,50.875137
2023-05-11T21:33:33.393Z,50.875137
2023-05-11T21:34:33.305Z,50.875137
2023-05-11T21:35:33.351Z,50.875137
2023-05-11T21:36:33.308Z,50.875137
2023-05-11T21:37:33.324Z,50.875137
2023-05-11T21:38:33.310Z,50.875137
2023-05-11T21:39:33.268Z,50.875137
2023-05-11T23:10:14.233Z,50.875965
2023-05-11T23:11:14.247Z,50.875916
2023-05-11T23:12:14.225Z,50.875916
2023-05-11T23:13:14.203Z,50.875916
2023-05-11T23:14:14.215Z,50.875916
2023-05-11T23:15:14.183Z,50.875916
2023-05-11T23:16:14.162Z,50.875916
2023-05-11T23:17:14.214Z,50.875378
2023-05-11T23:18:14.252Z,50.875175
2023-05-11T23:19:14.216Z,50.875156
2023-05-11T23:20:14.168Z,50.875404
2023-05-11T23:21:14.157Z,50.875401
2023-05-11T23:22:14.153Z,50.875404
2023-05-11T23:23:14.156Z,50.875446
2023-05-11T23:24:14.111Z,50.875446
2023-05-11T23:25:14.105Z,50.875446
2023-05-11T23:26:14.121Z,50.875446
2023-05-11T23:27:14.083Z,50.875446
2023-05-11T23:28:14.070Z,50.875446
2023-05-11T23:29:14.153Z,50.875446
2023-05-11T23:30:14.055Z,50.875446
2023-05-11T23:31:14.074Z,50.875446
2023-05-11T23:32:14.033Z,50.875446
2023-05-11T23:33:14.024Z,50.875446
2023-05-11T23:34:13.997Z,50.875446
2023-05-11T23:35:13.991Z,50.875446
2023-05-11T23:36:13.986Z,50.875446
2023-05-11T23:37:13.977Z,50.875446
2023-05-11T23:38:13.962Z,50.875446
2023-05-11T23:39:13.947Z,50.875446
2023-05-11T23:40:13.971Z,50.875446
2023-05-11T23:41:13.925Z,50.875446
2023-05-11T23:42:13.947Z,50.875446
2023-05-11T23:43:13.929Z,50.875446
2023-05-11T23:44:13.935Z,50.875446
2023-05-11T23:45:13.932Z,50.875446
2023-05-11T23:46:13.940Z,50.875446
2023-05-11T23:47:13.892Z,50.875446
2023-05-11T23:48:13.998Z,50.875446
2023-05-11T23:49:13.872Z,50.875446
2023-05-11T23:50:13.854Z,50.875446
2023-05-11T23:51:13.847Z,50.875446
2023-05-11T23:52:13.841Z,50.875446
2023-05-11T23:53:13.839Z,50.875446
2023-05-11T23:54:13.808Z,50.875446
2023-05-11T23:55:13.826Z,50.875446
2023-05-11T23:56:13.788Z,50.875446
2023-05-11T23:57:13.793Z,50.875446
2023-05-11T23:58:13.816Z,50.875446
2023-05-11T23:59:13.742Z,50.875446
